PWSweather.com
Personal Weather Stations
Station Observations

ChardChardGB

Lat: 50.877408, Lon: -2.94964741

Elevation: 341

Station Type: WS3083

http://www.merriott-astro.co.uk/weather/index.htm

High Low Average
Temperature 66.6°F19.2°C 58.6°F14.8°C 61.0°F16.1°C
Dew Point 61.0°F16.1°C 54.7°F12.6°C 58.5°F14.7°C
Winds 11.2 mph 18.0 kmh 1.7 mph 2.7 kmh 6.0 mph SW9.7 kmh SW
Wind Gusts 15.9 mph25.6 kmh 3.1 mph5.0 kmh 9.0 mph14.5 kmh
Humidity 100% 71% 92%
Pressure 29.01 in982.4 mb 28.84 in976.6 mb -
Precipitation 0.52 in13.2 mm - -
Hour Temp Dew Point Humidity Winds Wind Gusts Pressure Precip Precip Rate Daily Precip Total
12:00 AM 58.8°F14.9°C 58.6°F14.8°C 99% 11.1 mph S17.9 kmh S 15.9 mph25.6 kmh 28.86 in977.3 mb 0.02 in0.5 mm 0.00 in0.0 mm 0.02 in0.5 mm
12:10 AM 59.0°F15.0°C 58.7°F14.8°C 99% 11.2 mph SSW18.0 kmh SSW 15.2 mph24.5 kmh 28.86 in977.3 mb 0.04 in1.0 mm 0.12 in3.0 mm 0.01 in0.3 mm
12:20 AM 59.0°F15.0°C 58.7°F14.8°C 99% 10.3 mph SSW16.6 kmh SSW 14.5 mph23.3 kmh 28.86 in977.3 mb 0.02 in0.5 mm 0.00 in0.0 mm 0.01 in0.3 mm
12:30 AM 59.2°F15.1°C 58.9°F14.9°C 99% 8.3 mph S13.4 kmh S 13.6 mph21.9 kmh 28.86 in977.3 mb 0.04 in1.0 mm 0.12 in3.0 mm 0.02 in0.5 mm
12:40 AM 59.2°F15.1°C 58.9°F14.9°C 99% 8.4 mph SSW13.5 kmh SSW 13.6 mph21.9 kmh 28.84 in976.6 mb 0.05 in1.3 mm 0.06 in1.5 mm 0.04 in1.0 mm
12:50 AM 59.2°F15.1°C 58.9°F14.9°C 99% 8.0 mph SSW12.9 kmh SSW 13.0 mph20.9 kmh 28.86 in977.3 mb 0.12 in3.0 mm 0.42 in10.7 mm 0.12 in3.0 mm
01:00 AM 59.0°F15.0°C 58.7°F14.8°C 99% 9.3 mph S15.0 kmh S 15.2 mph24.5 kmh 28.85 in977.0 mb 0.19 in4.8 mm 0.08 in2.0 mm 0.19 in4.8 mm
01:10 AM 59.0°F15.0°C 58.7°F14.8°C 99% 9.1 mph SSW14.6 kmh SSW 13.6 mph21.9 kmh 28.85 in977.0 mb 0.22 in5.6 mm 0.18 in4.6 mm 0.24 in6.1 mm
01:20 AM 59.0°F15.0°C 58.7°F14.8°C 99% 7.2 mph SW11.6 kmh SW 9.2 mph14.8 kmh 28.84 in976.6 mb 0.24 in6.1 mm 0.12 in3.0 mm 0.25 in6.4 mm
01:30 AM 59.0°F15.0°C 58.7°F14.8°C 99% 8.6 mph SW13.8 kmh SW 10.7 mph17.2 kmh 28.84 in976.6 mb 0.24 in6.1 mm 0.00 in0.0 mm 0.26 in6.6 mm
01:40 AM 59.2°F15.1°C 58.9°F14.9°C 99% 8.2 mph SW13.2 kmh SW 11.4 mph18.3 kmh 28.85 in977.0 mb 0.25 in6.4 mm 0.06 in1.5 mm 0.28 in7.1 mm
01:50 AM 59.2°F15.1°C 58.9°F14.9°C 99% 6.0 mph S9.7 kmh S 9.8 mph15.8 kmh 28.85 in977.0 mb 0.18 in4.6 mm 0.00 in0.0 mm 0.30 in7.6 mm
02:00 AM 59.2°F15.1°C 58.9°F14.9°C 99% 5.9 mph SW9.5 kmh SW 8.3 mph13.4 kmh 28.84 in976.6 mb 0.11 in2.8 mm 0.00 in0.0 mm 0.30 in7.6 mm
02:10 AM 59.2°F15.1°C 58.9°F14.9°C 99% 4.7 mph SSW7.6 kmh SSW 6.9 mph11.1 kmh 28.85 in977.0 mb 0.06 in1.5 mm 0.00 in0.0 mm 0.30 in7.6 mm
02:20 AM 59.4°F15.2°C 59.1°F15.1°C 99% 6.5 mph SW10.5 kmh SW 9.2 mph14.8 kmh 28.85 in977.0 mb 0.05 in1.3 mm 0.00 in0.0 mm 0.30 in7.6 mm
02:30 AM 59.2°F15.1°C 58.9°F14.9°C 99% 6.1 mph S9.8 kmh S 9.2 mph14.8 kmh 28.85 in977.0 mb 0.05 in1.3 mm 0.00 in0.0 mm 0.31 in7.9 mm
02:40 AM 59.0°F15.0°C 58.7°F14.8°C 99% 4.8 mph SW7.7 kmh SW 6.9 mph11.1 kmh 28.85 in977.0 mb 0.02 in0.5 mm 0.00 in0.0 mm 0.31 in7.9 mm
02:50 AM 59.0°F15.0°C 58.7°F14.8°C 99% 5.3 mph SE8.5 kmh SE 7.6 mph12.2 kmh 28.84 in976.6 mb 0.05 in1.3 mm 0.18 in4.6 mm 0.34 in8.6 mm
03:00 AM 59.0°F15.0°C 58.7°F14.8°C 99% 6.7 mph SW10.8 kmh SW 9.8 mph15.8 kmh 28.84 in976.6 mb 0.08 in2.0 mm 0.04 in1.0 mm 0.38 in9.7 mm
03:10 AM 59.0°F15.0°C 58.7°F14.8°C 99% 4.8 mph SW7.7 kmh SW 13.0 mph20.9 kmh 28.84 in976.6 mb 0.13 in3.3 mm 0.30 in7.6 mm 0.43 in10.9 mm
03:20 AM 59.2°F15.1°C 59.2°F15.1°C 100% 8.3 mph SW13.4 kmh SW 13.0 mph20.9 kmh 28.85 in977.0 mb 0.14 in3.6 mm 0.06 in1.5 mm 0.44 in11.2 mm
03:30 AM 59.0°F15.0°C 57.9°F14.4°C 96% 10.0 mph SW16.1 kmh SW 13.6 mph21.9 kmh 28.85 in977.0 mb 0.13 in3.3 mm 0.00 in0.0 mm 0.44 in11.2 mm
03:40 AM 58.8°F14.9°C 57.7°F14.3°C 96% 8.7 mph SW14.0 kmh SW 11.4 mph18.3 kmh 28.85 in977.0 mb 0.12 in3.0 mm 0.00 in0.0 mm 0.44 in11.2 mm
03:50 AM 59.0°F15.0°C 57.9°F14.4°C 96% 7.5 mph SW12.1 kmh SW 9.2 mph14.8 kmh 28.85 in977.0 mb 0.09 in2.3 mm 0.00 in0.0 mm 0.44 in11.2 mm
04:00 AM 58.8°F14.9°C 57.7°F14.3°C 96% 6.6 mph SSW10.6 kmh SSW 9.2 mph14.8 kmh 28.85 in977.0 mb 0.06 in1.5 mm 0.00 in0.0 mm 0.44 in11.2 mm
04:10 AM 58.8°F14.9°C 58.0°F14.4°C 97% 4.7 mph S7.6 kmh S 7.6 mph12.2 kmh 28.85 in977.0 mb 0.01 in0.3 mm 0.00 in0.0 mm 0.44 in11.2 mm
04:20 AM 59.0°F15.0°C 58.2°F14.6°C 97% 5.5 mph SSW8.9 kmh SSW 8.3 mph13.4 kmh 28.84 in976.6 mb 0.00 in0.0 mm 0.00 in0.0 mm 0.44 in11.2 mm
04:30 AM 59.0°F15.0°C 58.2°F14.6°C 97% 6.9 mph SW11.1 kmh SW 8.3 mph13.4 kmh 28.84 in976.6 mb 0.00 in0.0 mm 0.00 in0.0 mm 0.44 in11.2 mm
04:40 AM 58.8°F14.9°C 57.7°F14.3°C 96% 7.3 mph WSW11.7 kmh WSW 11.4 mph18.3 kmh 28.85 in977.0 mb 0.00 in0.0 mm 0.00 in0.0 mm 0.44 in11.2 mm
04:50 AM 58.8°F14.9°C 57.7°F14.3°C 96% 7.6 mph WSW12.2 kmh WSW 13.0 mph20.9 kmh 28.85 in977.0 mb 0.00 in0.0 mm 0.00 in0.0 mm 0.44 in11.2 mm
05:00 AM 58.8°F14.9°C 57.7°F14.3°C 96% 7.5 mph SW12.1 kmh SW 9.8 mph15.8 kmh 28.85 in977.0 mb 0.00 in0.0 mm 0.00 in0.0 mm 0.44 in11.2 mm
05:10 AM 58.8°F14.9°C 58.0°F14.4°C 97% 5.6 mph S9.0 kmh S 6.9 mph11.1 kmh 28.85 in977.0 mb 0.01 in0.3 mm 0.06 in1.5 mm 0.45 in11.4 mm
05:20 AM 58.8°F14.9°C 58.0°F14.4°C 97% 4.3 mph SW6.9 kmh SW 6.0 mph9.7 kmh 28.86 in977.3 mb 0.01 in0.3 mm 0.00 in0.0 mm 0.45 in11.4 mm
05:30 AM 58.8°F14.9°C 58.8°F14.9°C 100% 5.9 mph S9.5 kmh S 8.3 mph13.4 kmh 28.86 in977.3 mb 0.02 in0.5 mm 0.06 in1.5 mm 0.46 in11.7 mm
05:40 AM 58.6°F14.8°C 58.4°F14.7°C 99% 4.8 mph SSW7.7 kmh SSW 7.6 mph12.2 kmh 28.87 in977.7 mb 0.04 in1.0 mm 0.12 in3.0 mm 0.47 in11.9 mm
05:50 AM 58.8°F14.9°C 58.6°F14.8°C 99% 4.5 mph W7.2 kmh W 9.2 mph14.8 kmh 28.87 in977.7 mb 0.04 in1.0 mm 0.00 in0.0 mm 0.47 in11.9 mm
06:00 AM 58.8°F14.9°C 58.6°F14.8°C 99% 5.3 mph WSW8.5 kmh WSW 6.9 mph11.1 kmh 28.87 in977.7 mb 0.04 in1.0 mm 0.00 in0.0 mm 0.47 in11.9 mm
06:10 AM 59.0°F15.0°C 58.7°F14.8°C 99% 4.8 mph SSW7.7 kmh SSW 6.9 mph11.1 kmh 28.88 in978.0 mb 0.02 in0.5 mm 0.00 in0.0 mm 0.47 in11.9 mm
06:20 AM 59.0°F15.0°C 58.7°F14.8°C 99% 4.1 mph SSW6.6 kmh SSW 6.9 mph11.1 kmh 28.88 in978.0 mb 0.02 in0.5 mm 0.00 in0.0 mm 0.47 in11.9 mm
06:30 AM 59.2°F15.1°C 58.9°F14.9°C 99% 5.8 mph S9.3 kmh S 9.8 mph15.8 kmh 28.88 in978.0 mb 0.01 in0.3 mm 0.00 in0.0 mm 0.47 in11.9 mm
06:40 AM 59.2°F15.1°C 59.2°F15.1°C 100% 6.0 mph S9.7 kmh S 9.2 mph14.8 kmh 28.89 in978.3 mb 0.00 in0.0 mm 0.00 in0.0 mm 0.47 in11.9 mm
06:50 AM 59.2°F15.1°C 59.2°F15.1°C 100% 5.9 mph SW9.5 kmh SW 9.2 mph14.8 kmh 28.89 in978.3 mb 0.00 in0.0 mm 0.00 in0.0 mm 0.47 in11.9 mm
07:00 AM 59.2°F15.1°C 59.2°F15.1°C 100% 7.4 mph S11.9 kmh S 14.5 mph23.3 kmh 28.89 in978.3 mb 0.00 in0.0 mm 0.00 in0.0 mm 0.47 in11.9 mm
07:10 AM 59.2°F15.1°C 59.2°F15.1°C 100% 4.9 mph WSW7.9 kmh WSW 8.3 mph13.4 kmh 28.89 in978.3 mb 0.01 in0.3 mm 0.06 in1.5 mm 0.48 in12.2 mm
07:20 AM 59.4°F15.2°C 59.1°F15.1°C 99% 6.0 mph SSW9.7 kmh SSW 9.2 mph14.8 kmh 28.89 in978.3 mb 0.01 in0.3 mm 0.00 in0.0 mm 0.48 in12.2 mm
07:30 AM 59.4°F15.2°C 59.1°F15.1°C 99% 5.6 mph SW9.0 kmh SW 7.6 mph12.2 kmh 28.89 in978.3 mb 0.01 in0.3 mm 0.00 in0.0 mm 0.48 in12.2 mm
07:40 AM 59.4°F15.2°C 59.1°F15.1°C 99% 5.4 mph S8.7 kmh S 6.9 mph11.1 kmh 28.91 in979.0 mb 0.04 in1.0 mm 0.18 in4.6 mm 0.51 in13.0 mm
07:50 AM 59.5°F15.3°C 59.3°F15.2°C 99% 6.6 mph SSW10.6 kmh SSW 9.8 mph15.8 kmh 28.90 in978.7 mb 0.04 in1.0 mm 0.00 in0.0 mm 0.51 in13.0 mm
08:00 AM 59.7°F15.4°C 59.7°F15.4°C 100% 5.7 mph SSW9.2 kmh SSW 8.3 mph13.4 kmh 28.91 in979.0 mb 0.04 in1.0 mm 0.00 in0.0 mm 0.51 in13.0 mm
08:10 AM 59.9°F15.5°C 59.1°F15.1°C 97% 6.1 mph W9.8 kmh W 10.7 mph17.2 kmh 28.92 in979.3 mb 0.04 in1.0 mm 0.00 in0.0 mm 0.52 in13.2 mm
08:20 AM 61.0°F16.1°C 59.8°F15.4°C 96% 5.7 mph W9.2 kmh W 10.7 mph17.2 kmh 28.92 in979.3 mb 0.04 in1.0 mm 0.00 in0.0 mm 0.52 in13.2 mm
08:30 AM 61.0°F16.1°C 59.0°F15.0°C 93% 6.5 mph WSW10.5 kmh WSW 10.7 mph17.2 kmh 28.92 in979.3 mb 0.04 in1.0 mm 0.00 in0.0 mm 0.52 in13.2 mm
08:40 AM 61.0°F16.1°C 59.0°F15.0°C 93% 4.7 mph WSW7.6 kmh WSW 6.9 mph11.1 kmh 28.92 in979.3 mb 0.01 in0.3 mm 0.00 in0.0 mm 0.52 in13.2 mm
08:50 AM 61.0°F16.1°C 59.3°F15.2°C 94% 4.8 mph WSW7.7 kmh WSW 7.6 mph12.2 kmh 28.93 in979.7 mb 0.01 in0.3 mm 0.00 in0.0 mm 0.52 in13.2 mm
09:00 AM 61.3°F16.3°C 59.9°F15.5°C 95% 4.4 mph W7.1 kmh W 9.2 mph14.8 kmh 28.93 in979.7 mb 0.01 in0.3 mm 0.00 in0.0 mm 0.52 in13.2 mm
09:10 AM 61.3°F16.3°C 59.6°F15.3°C 94% 6.5 mph W10.5 kmh W 12.1 mph19.5 kmh 28.93 in979.7 mb 0.00 in0.0 mm 0.00 in0.0 mm 0.52 in13.2 mm
09:20 AM 61.7°F16.5°C 59.4°F15.2°C 92% 6.6 mph W10.6 kmh W 10.7 mph17.2 kmh 28.93 in979.7 mb 0.00 in0.0 mm 0.00 in0.0 mm 0.52 in13.2 mm
09:30 AM 61.5°F16.4°C 58.9°F14.9°C 91% 5.1 mph WSW8.2 kmh WSW 7.6 mph12.2 kmh 28.94 in980.0 mb 0.00 in0.0 mm 0.00 in0.0 mm 0.52 in13.2 mm
09:40 AM 61.7°F16.5°C 59.4°F15.2°C 92% 5.3 mph W8.5 kmh W 8.3 mph13.4 kmh 28.94 in980.0 mb 0.00 in0.0 mm 0.00 in0.0 mm 0.52 in13.2 mm
09:50 AM 61.7°F16.5°C 59.1°F15.1°C 91% 4.8 mph NW7.7 kmh NW 7.6 mph12.2 kmh 28.95 in980.4 mb 0.00 in0.0 mm 0.00 in0.0 mm 0.52 in13.2 mm
10:00 AM 62.6°F17.0°C 60.0°F15.6°C 91% 6.9 mph NNW11.1 kmh NNW 12.1 mph19.5 kmh 28.95 in980.4 mb 0.00 in0.0 mm 0.00 in0.0 mm 0.52 in13.2 mm
10:10 AM 62.1°F16.7°C 59.4°F15.2°C 91% 7.5 mph WSW12.1 kmh WSW 11.4 mph18.3 kmh 28.95 in980.4 mb 0.00 in0.0 mm 0.00 in0.0 mm 0.52 in13.2 mm
10:20 AM 62.4°F16.9°C 59.5°F15.3°C 90% 7.7 mph WNW12.4 kmh WNW 10.7 mph17.2 kmh 28.96 in980.7 mb 0.00 in0.0 mm 0.00 in0.0 mm 0.52 in13.2 mm
10:30 AM 62.2°F16.8°C 59.6°F15.3°C 91% 7.1 mph SW11.4 kmh SW 10.7 mph17.2 kmh 28.95 in980.4 mb 0.00 in0.0 mm 0.00 in0.0 mm 0.52 in13.2 mm
10:40 AM 62.4°F16.9°C 59.5°F15.3°C 90% 6.0 mph WSW9.7 kmh WSW 13.0 mph20.9 kmh 28.97 in981.0 mb 0.00 in0.0 mm 0.00 in0.0 mm 0.52 in13.2 mm
10:50 AM 62.1°F16.7°C 59.1°F15.1°C 90% 7.1 mph WNW11.4 kmh WNW 9.8 mph15.8 kmh 28.97 in981.0 mb 0.00 in0.0 mm 0.00 in0.0 mm 0.52 in13.2 mm
11:00 AM 62.2°F16.8°C 59.3°F15.2°C 90% 6.6 mph SW10.6 kmh SW 9.8 mph15.8 kmh 28.97 in981.0 mb 0.00 in0.0 mm 0.00 in0.0 mm 0.52 in13.2 mm
11:10 AM 62.6°F17.0°C 58.7°F14.8°C 87% 6.0 mph WSW9.7 kmh WSW 7.6 mph12.2 kmh 28.97 in981.0 mb 0.00 in0.0 mm 0.00 in0.0 mm 0.52 in13.2 mm
11:20 AM 62.8°F17.1°C 58.5°F14.7°C 86% 6.1 mph NW9.8 kmh NW 7.6 mph12.2 kmh 28.97 in981.0 mb 0.00 in0.0 mm 0.00 in0.0 mm 0.52 in13.2 mm
11:30 AM 63.0°F17.2°C 58.7°F14.8°C 86% 6.2 mph WNW10.0 kmh WNW 6.9 mph11.1 kmh 28.97 in981.0 mb 0.00 in0.0 mm 0.00 in0.0 mm 0.52 in13.2 mm
11:40 AM 63.0°F17.2°C 58.1°F14.5°C 84% 6.3 mph SW10.1 kmh SW 11.4 mph18.3 kmh 28.98 in981.4 mb 0.00 in0.0 mm 0.00 in0.0 mm 0.52 in13.2 mm
11:50 AM 64.2°F17.9°C 58.3°F14.6°C 81% 5.6 mph SW9.0 kmh SW 9.8 mph15.8 kmh 28.98 in981.4 mb 0.00 in0.0 mm 0.00 in0.0 mm 0.52 in13.2 mm
12:00 PM 63.5°F17.5°C 57.2°F14.0°C 80% 5.0 mph WSW8.0 kmh WSW 7.6 mph12.2 kmh 28.98 in981.4 mb 0.00 in0.0 mm 0.00 in0.0 mm 0.52 in13.2 mm
12:10 PM 64.2°F17.9°C 57.9°F14.4°C 80% 6.4 mph WSW10.3 kmh WSW 9.2 mph14.8 kmh 28.98 in981.4 mb 0.00 in0.0 mm 0.00 in0.0 mm 0.52 in13.2 mm
12:20 PM 63.9°F17.7°C 57.2°F14.0°C 79% 6.0 mph W9.7 kmh W 8.3 mph13.4 kmh 28.98 in981.4 mb 0.00 in0.0 mm 0.00 in0.0 mm 0.52 in13.2 mm
12:30 PM 64.0°F17.8°C 56.7°F13.7°C 77% 7.0 mph W11.3 kmh W 9.2 mph14.8 kmh 28.98 in981.4 mb 0.00 in0.0 mm 0.00 in0.0 mm 0.52 in13.2 mm
12:40 PM 65.1°F18.4°C 57.8°F14.3°C 77% 6.6 mph N10.6 kmh N 8.3 mph13.4 kmh 28.98 in981.4 mb 0.00 in0.0 mm 0.00 in0.0 mm 0.52 in13.2 mm
12:50 PM 66.0°F18.9°C 57.5°F14.2°C 74% 6.6 mph WSW10.6 kmh WSW 10.7 mph17.2 kmh 28.99 in981.7 mb 0.00 in0.0 mm 0.00 in0.0 mm 0.52 in13.2 mm
01:00 PM 65.3°F18.5°C 56.8°F13.8°C 74% 5.2 mph W8.4 kmh W 6.9 mph11.1 kmh 28.98 in981.4 mb 0.00 in0.0 mm 0.00 in0.0 mm 0.52 in13.2 mm
01:10 PM 64.8°F18.2°C 56.3°F13.5°C 74% 5.2 mph W8.4 kmh W 8.3 mph13.4 kmh 28.99 in981.7 mb 0.00 in0.0 mm 0.00 in0.0 mm 0.52 in13.2 mm
01:20 PM 65.5°F18.6°C 57.7°F14.3°C 76% 6.2 mph W10.0 kmh W 8.3 mph13.4 kmh 28.98 in981.4 mb 0.00 in0.0 mm 0.00 in0.0 mm 0.52 in13.2 mm
01:30 PM 66.6°F19.2°C 57.3°F14.1°C 72% 7.2 mph SW11.6 kmh SW 12.1 mph19.5 kmh 28.99 in981.7 mb 0.00 in0.0 mm 0.00 in0.0 mm 0.52 in13.2 mm
01:40 PM 65.1°F18.4°C 55.9°F13.3°C 72% 6.4 mph WNW10.3 kmh WNW 9.8 mph15.8 kmh 29.00 in982.1 mb 0.00 in0.0 mm 0.00 in0.0 mm 0.52 in13.2 mm
01:50 PM 64.4°F18.0°C 55.6°F13.1°C 73% 8.2 mph SW13.2 kmh SW 10.7 mph17.2 kmh 29.00 in982.1 mb 0.00 in0.0 mm 0.00 in0.0 mm 0.52 in13.2 mm
02:00 PM 63.9°F17.7°C 55.1°F12.8°C 73% 7.5 mph NW12.1 kmh NW 11.4 mph18.3 kmh 28.99 in981.7 mb 0.00 in0.0 mm 0.00 in0.0 mm 0.52 in13.2 mm
02:10 PM 63.5°F17.5°C 55.1°F12.8°C 74% 3.7 mph WSW6.0 kmh WSW 6.0 mph9.7 kmh 29.00 in982.1 mb 0.00 in0.0 mm 0.00 in0.0 mm 0.52 in13.2 mm
02:20 PM 63.1°F17.3°C 56.9°F13.8°C 80% 5.8 mph SSW9.3 kmh SSW 7.6 mph12.2 kmh 29.00 in982.1 mb 0.00 in0.0 mm 0.00 in0.0 mm 0.52 in13.2 mm
02:30 PM 64.2°F17.9°C 55.8°F13.2°C 74% 5.3 mph WNW8.5 kmh WNW 7.6 mph12.2 kmh 29.00 in982.1 mb 0.00 in0.0 mm 0.00 in0.0 mm 0.52 in13.2 mm
02:40 PM 64.8°F18.2°C 55.9°F13.3°C 73% 5.0 mph WSW8.0 kmh WSW 6.0 mph9.7 kmh 29.00 in982.1 mb 0.00 in0.0 mm 0.00 in0.0 mm 0.52 in13.2 mm
02:50 PM 64.6°F18.1°C 55.0°F12.8°C 71% 4.6 mph W7.4 kmh W 9.2 mph14.8 kmh 29.00 in982.1 mb 0.00 in0.0 mm 0.00 in0.0 mm 0.52 in13.2 mm
03:00 PM 64.8°F18.2°C 55.5°F13.1°C 72% 3.9 mph WSW6.3 kmh WSW 4.5 mph7.2 kmh 29.00 in982.1 mb 0.00 in0.0 mm 0.00 in0.0 mm 0.52 in13.2 mm
03:10 PM 64.2°F17.9°C 55.0°F12.8°C 72% 5.2 mph W8.4 kmh W 6.9 mph11.1 kmh 29.00 in982.1 mb 0.00 in0.0 mm 0.00 in0.0 mm 0.52 in13.2 mm
03:20 PM 63.9°F17.7°C 54.7°F12.6°C 72% 4.8 mph WSW7.7 kmh WSW 9.8 mph15.8 kmh 29.00 in982.1 mb 0.00 in0.0 mm 0.00 in0.0 mm 0.52 in13.2 mm
03:30 PM 63.1°F17.3°C 55.5°F13.1°C 76% 4.2 mph SW6.8 kmh SW 6.9 mph11.1 kmh 29.00 in982.1 mb 0.00 in0.0 mm 0.00 in0.0 mm 0.52 in13.2 mm
03:40 PM 63.0°F17.2°C 56.0°F13.3°C 78% 3.9 mph SE6.3 kmh SE 5.4 mph8.7 kmh 29.00 in982.1 mb 0.00 in0.0 mm 0.00 in0.0 mm 0.52 in13.2 mm
03:50 PM 63.0°F17.2°C 56.4°F13.6°C 79% 3.7 mph S6.0 kmh S 6.0 mph9.7 kmh 29.01 in982.4 mb 0.00 in0.0 mm 0.00 in0.0 mm 0.52 in13.2 mm
04:00 PM 62.6°F17.0°C 56.4°F13.6°C 80% 4.5 mph SSE7.2 kmh SSE 6.9 mph11.1 kmh 29.00 in982.1 mb 0.00 in0.0 mm 0.00 in0.0 mm 0.52 in13.2 mm
04:10 PM 62.2°F16.8°C 56.4°F13.6°C 81% 5.0 mph WSW8.0 kmh WSW 7.6 mph12.2 kmh 29.01 in982.4 mb 0.00 in0.0 mm 0.00 in0.0 mm 0.52 in13.2 mm
04:20 PM 61.5°F16.4°C 56.3°F13.5°C 83% 4.2 mph WSW6.8 kmh WSW 7.6 mph12.2 kmh 29.01 in982.4 mb 0.00 in0.0 mm 0.00 in0.0 mm 0.52 in13.2 mm
04:30 PM 61.7°F16.5°C 57.2°F14.0°C 85% 2.9 mph WSW4.7 kmh WSW 4.5 mph7.2 kmh 29.01 in982.4 mb 0.00 in0.0 mm 0.00 in0.0 mm 0.52 in13.2 mm
04:40 PM 61.9°F16.6°C 57.0°F13.9°C 84% 2.4 mph WSW3.9 kmh WSW 3.8 mph6.1 kmh 29.01 in982.4 mb 0.00 in0.0 mm 0.00 in0.0 mm 0.52 in13.2 mm
04:50 PM 61.7°F16.5°C 56.8°F13.8°C 84% 2.6 mph SW4.2 kmh SW 4.5 mph7.2 kmh 29.01 in982.4 mb 0.00 in0.0 mm 0.00 in0.0 mm 0.52 in13.2 mm
05:00 PM 61.7°F16.5°C 56.8°F13.8°C 84% 2.4 mph SW3.9 kmh SW 3.8 mph6.1 kmh 29.01 in982.4 mb 0.00 in0.0 mm 0.00 in0.0 mm 0.52 in13.2 mm
05:10 PM 61.7°F16.5°C 57.2°F14.0°C 85% 2.7 mph SSW4.3 kmh SSW 3.1 mph5.0 kmh 29.01 in982.4 mb 0.00 in0.0 mm 0.00 in0.0 mm 0.52 in13.2 mm
05:20 PM 61.7°F16.5°C 57.2°F14.0°C 85% 2.5 mph SSW4.0 kmh SSW 5.4 mph8.7 kmh 29.01 in982.4 mb 0.00 in0.0 mm 0.00 in0.0 mm 0.52 in13.2 mm
05:30 PM 61.9°F16.6°C 57.3°F14.1°C 85% 2.0 mph SSW3.2 kmh SSW 3.8 mph6.1 kmh 29.01 in982.4 mb 0.00 in0.0 mm 0.00 in0.0 mm 0.52 in13.2 mm
05:40 PM 61.7°F16.5°C 57.2°F14.0°C 85% 2.9 mph S4.7 kmh S 4.5 mph7.2 kmh 29.00 in982.1 mb 0.00 in0.0 mm 0.00 in0.0 mm 0.52 in13.2 mm
05:50 PM 61.5°F16.4°C 57.0°F13.9°C 85% 2.0 mph S3.2 kmh S 3.8 mph6.1 kmh 29.01 in982.4 mb 0.00 in0.0 mm 0.00 in0.0 mm 0.52 in13.2 mm
06:00 PM 61.5°F16.4°C 57.3°F14.1°C 86% 2.1 mph S3.4 kmh S 3.8 mph6.1 kmh 29.00 in982.1 mb 0.00 in0.0 mm 0.00 in0.0 mm 0.52 in13.2 mm
06:10 PM 61.3°F16.3°C 57.8°F14.3°C 88% 3.2 mph SE5.1 kmh SE 6.9 mph11.1 kmh 29.01 in982.4 mb 0.00 in0.0 mm 0.00 in0.0 mm 0.52 in13.2 mm
06:20 PM 61.2°F16.2°C 57.9°F14.4°C 89% 3.1 mph S5.0 kmh S 4.5 mph7.2 kmh 29.01 in982.4 mb 0.00 in0.0 mm 0.00 in0.0 mm 0.52 in13.2 mm
06:30 PM 61.0°F16.1°C 58.0°F14.4°C 90% 3.0 mph SE4.8 kmh SE 5.4 mph8.7 kmh 29.00 in982.1 mb 0.00 in0.0 mm 0.00 in0.0 mm 0.52 in13.2 mm
06:40 PM 61.0°F16.1°C 58.3°F14.6°C 91% 3.0 mph S4.8 kmh S 5.4 mph8.7 kmh 29.00 in982.1 mb 0.00 in0.0 mm 0.00 in0.0 mm 0.52 in13.2 mm
06:50 PM 60.6°F15.9°C 58.6°F14.8°C 93% 6.1 mph S9.8 kmh S 10.7 mph17.2 kmh 29.01 in982.4 mb 0.00 in0.0 mm 0.00 in0.0 mm 0.52 in13.2 mm
07:00 PM 60.4°F15.8°C 59.0°F15.0°C 95% 4.6 mph S7.4 kmh S 8.3 mph13.4 kmh 29.00 in982.1 mb 0.00 in0.0 mm 0.00 in0.0 mm 0.52 in13.2 mm
07:10 PM 60.4°F15.8°C 59.6°F15.3°C 97% 3.3 mph S5.3 kmh S 6.0 mph9.7 kmh 29.00 in982.1 mb 0.00 in0.0 mm 0.00 in0.0 mm 0.52 in13.2 mm
07:20 PM 60.4°F15.8°C 60.5°F15.8°C 100% 4.0 mph S6.4 kmh S 5.4 mph8.7 kmh 29.00 in982.1 mb 0.00 in0.0 mm 0.00 in0.0 mm 0.52 in13.2 mm
07:30 PM 60.3°F15.7°C 60.0°F15.6°C 99% 3.6 mph S5.8 kmh S 4.5 mph7.2 kmh 29.00 in982.1 mb 0.00 in0.0 mm 0.00 in0.0 mm 0.52 in13.2 mm
07:40 PM 60.3°F15.7°C 60.0°F15.6°C 99% 4.8 mph S7.7 kmh S 6.9 mph11.1 kmh 29.00 in982.1 mb 0.00 in0.0 mm 0.00 in0.0 mm 0.52 in13.2 mm
07:50 PM 60.3°F15.7°C 60.0°F15.6°C 99% 4.2 mph SSW6.8 kmh SSW 6.9 mph11.1 kmh 29.00 in982.1 mb 0.00 in0.0 mm 0.00 in0.0 mm 0.52 in13.2 mm
08:00 PM 60.3°F15.7°C 60.0°F15.6°C 99% 4.2 mph SSW6.8 kmh SSW 6.0 mph9.7 kmh 29.01 in982.4 mb 0.00 in0.0 mm 0.00 in0.0 mm 0.52 in13.2 mm
08:10 PM 60.3°F15.7°C 60.0°F15.6°C 99% 3.7 mph S6.0 kmh S 6.9 mph11.1 kmh 29.01 in982.4 mb 0.00 in0.0 mm 0.00 in0.0 mm 0.52 in13.2 mm
08:20 PM 60.1°F15.6°C 59.8°F15.4°C 99% 2.7 mph S4.3 kmh S 4.5 mph7.2 kmh 29.00 in982.1 mb 0.00 in0.0 mm 0.00 in0.0 mm 0.52 in13.2 mm
08:30 PM 60.1°F15.6°C 59.8°F15.4°C 99% 3.5 mph S5.6 kmh S 5.4 mph8.7 kmh 29.01 in982.4 mb 0.00 in0.0 mm 0.00 in0.0 mm 0.52 in13.2 mm
08:40 PM 60.1°F15.6°C 59.8°F15.4°C 99% 1.7 mph SE2.7 kmh SE 3.1 mph5.0 kmh 29.01 in982.4 mb 0.00 in0.0 mm 0.00 in0.0 mm 0.52 in13.2 mm
08:50 PM 60.3°F15.7°C 60.0°F15.6°C 99% 5.3 mph S8.5 kmh S 9.2 mph14.8 kmh 29.00 in982.1 mb 0.00 in0.0 mm 0.00 in0.0 mm 0.52 in13.2 mm
09:00 PM 60.3°F15.7°C 60.0°F15.6°C 99% 5.2 mph S8.4 kmh S 8.3 mph13.4 kmh 29.00 in982.1 mb 0.00 in0.0 mm 0.00 in0.0 mm 0.52 in13.2 mm
09:10 PM 60.3°F15.7°C 60.0°F15.6°C 99% 5.8 mph S9.3 kmh S 9.8 mph15.8 kmh 28.99 in981.7 mb 0.00 in0.0 mm 0.00 in0.0 mm 0.52 in13.2 mm
09:20 PM 60.4°F15.8°C 60.2°F15.7°C 99% 4.7 mph S7.6 kmh S 6.9 mph11.1 kmh 28.99 in981.7 mb 0.00 in0.0 mm 0.00 in0.0 mm 0.52 in13.2 mm
09:30 PM 60.4°F15.8°C 60.2°F15.7°C 99% 6.8 mph S10.9 kmh S 9.2 mph14.8 kmh 29.00 in982.1 mb 0.00 in0.0 mm 0.00 in0.0 mm 0.52 in13.2 mm
09:40 PM 60.6°F15.9°C 60.4°F15.8°C 99% 6.1 mph S9.8 kmh S 9.2 mph14.8 kmh 28.99 in981.7 mb 0.00 in0.0 mm 0.00 in0.0 mm 0.52 in13.2 mm
09:50 PM 60.6°F15.9°C 60.4°F15.8°C 99% 7.1 mph SSW11.4 kmh SSW 9.2 mph14.8 kmh 29.00 in982.1 mb 0.00 in0.0 mm 0.00 in0.0 mm 0.52 in13.2 mm
10:00 PM 60.8°F16.0°C 60.5°F15.8°C 99% 6.2 mph S10.0 kmh S 9.8 mph15.8 kmh 28.99 in981.7 mb 0.00 in0.0 mm 0.00 in0.0 mm 0.52 in13.2 mm
10:10 PM 61.0°F16.1°C 60.7°F15.9°C 99% 7.0 mph S11.3 kmh S 9.8 mph15.8 kmh 28.99 in981.7 mb 0.00 in0.0 mm 0.00 in0.0 mm 0.52 in13.2 mm
10:20 PM 61.0°F16.1°C 61.0°F16.1°C 100% 7.0 mph SSW11.3 kmh SSW 9.8 mph15.8 kmh 28.99 in981.7 mb 0.00 in0.0 mm 0.00 in0.0 mm 0.52 in13.2 mm
10:30 PM 61.0°F16.1°C 61.0°F16.1°C 100% 6.4 mph S10.3 kmh S 7.6 mph12.2 kmh 28.98 in981.4 mb 0.00 in0.0 mm 0.00 in0.0 mm 0.52 in13.2 mm
10:40 PM 61.2°F16.2°C 60.3°F15.7°C 97% 5.2 mph S8.4 kmh S 7.6 mph12.2 kmh 29.00 in982.1 mb 0.00 in0.0 mm 0.00 in0.0 mm 0.52 in13.2 mm
10:50 PM 61.2°F16.2°C 60.0°F15.6°C 96% 6.2 mph SSW10.0 kmh SSW 7.6 mph12.2 kmh 28.99 in981.7 mb 0.00 in0.0 mm 0.00 in0.0 mm 0.52 in13.2 mm
11:00 PM 61.2°F16.2°C 60.0°F15.6°C 96% 5.6 mph SW9.0 kmh SW 9.2 mph14.8 kmh 28.99 in981.7 mb 0.00 in0.0 mm 0.00 in0.0 mm 0.52 in13.2 mm
11:10 PM 61.2°F16.2°C 59.7°F15.4°C 95% 5.1 mph SSW8.2 kmh SSW 6.9 mph11.1 kmh 28.99 in981.7 mb 0.00 in0.0 mm 0.00 in0.0 mm 0.52 in13.2 mm
11:20 PM 61.2°F16.2°C 59.4°F15.2°C 94% 7.1 mph SSW11.4 kmh SSW 9.8 mph15.8 kmh 28.98 in981.4 mb 0.00 in0.0 mm 0.00 in0.0 mm 0.52 in13.2 mm
11:30 PM 61.2°F16.2°C 59.4°F15.2°C 94% 7.2 mph S11.6 kmh S 13.6 mph21.9 kmh 28.98 in981.4 mb 0.00 in0.0 mm 0.00 in0.0 mm 0.52 in13.2 mm
11:40 PM 61.2°F16.2°C 59.4°F15.2°C 94% 7.2 mph SSW11.6 kmh SSW 9.8 mph15.8 kmh 28.98 in981.4 mb 0.00 in0.0 mm 0.00 in0.0 mm 0.52 in13.2 mm
11:50 PM 61.0°F16.1°C 59.6°F15.3°C 95% 7.7 mph S12.4 kmh S 12.1 mph19.5 kmh 28.97 in981.0 mb 0.00 in0.0 mm 0.00 in0.0 mm 0.52 in13.2 mm